createdAt,value
2022-10-03T00:01:17.649Z,98683.56
2022-10-03T00:03:47.922Z,98691.28
2022-10-03T00:06:23.054Z,98693.09
2022-10-03T00:09:08.205Z,98693.41
2022-10-03T00:11:34.458Z,98687.59
2022-10-03T00:14:04.865Z,98698.16
2022-10-03T00:16:47.408Z,98695.22
2022-10-03T00:19:13.693Z,98697.78
2022-10-03T00:21:52.326Z,98701.78
2022-10-03T00:24:24.774Z,98700.63
2022-10-03T00:27:03.127Z,98704.66
2022-10-03T00:29:38.675Z,98709.09
2022-10-03T00:32:14.152Z,98707.28
2022-10-03T00:34:59.798Z,98706.53
2022-10-03T00:37:36.437Z,98714.09
2022-10-03T00:40:21.647Z,98716.63
2022-10-03T00:42:48.748Z,98724.25
2022-10-03T00:45:17.900Z,98718.03
2022-10-03T00:47:56.400Z,98721.38
2022-10-03T00:50:35.013Z,98723.50
2022-10-03T00:53:06.184Z,98731.53
2022-10-03T00:55:57.818Z,98730.84
2022-10-03T00:58:33.913Z,98724.25
2022-10-03T01:01:19.604Z,98727.63
2022-10-03T01:03:58.030Z,98727.53
2022-10-03T01:06:43.134Z,98732.72
2022-10-03T01:09:09.404Z,98741.41
2022-10-03T01:11:54.554Z,98731.88
2022-10-03T01:14:28.070Z,98717.38
2022-10-03T01:17:06.643Z,98733.38
2022-10-03T01:19:33.011Z,98734.03
2022-10-03T01:22:05.424Z,98728.59
2022-10-03T01:24:34.891Z,98727.09
2022-10-03T01:27:01.208Z,98721.19
2022-10-03T01:29:57.400Z,98729.53
2022-10-03T01:32:30.258Z,98737.06
2022-10-03T01:35:07.857Z,98726.81
2022-10-03T01:37:40.385Z,98734.03
2022-10-03T01:40:06.729Z,98733.91
2022-10-03T01:42:51.925Z,98725.53
2022-10-03T01:45:37.503Z,98729.13
2022-10-03T01:48:19.498Z,98741.22
2022-10-03T01:50:46.499Z,98738.69
2022-10-03T01:53:23.650Z,98735.69
2022-10-03T01:55:57.389Z,98742.28
2022-10-03T01:58:39.262Z,98739.00
2022-10-03T02:01:24.466Z,98741.22
2022-10-03T02:04:02.562Z,98746.63
2022-10-03T02:06:38.738Z,98743.75
2022-10-03T02:09:10.756Z,98746.31
2022-10-03T02:11:39.841Z,98745.13
2022-10-03T02:14:13.003Z,98748.41
2022-10-03T02:16:58.200Z,98749.59
2022-10-03T02:19:29.781Z,98762.63
2022-10-03T02:21:57.566Z,98757.22
2022-10-03T02:24:36.147Z,98759.75
2022-10-03T02:27:21.529Z,98762.72
2022-10-03T02:29:57.017Z,98757.63
2022-10-03T02:32:32.505Z,98759.13
2022-10-03T02:35:09.069Z,98760.16
2022-10-03T02:38:01.685Z,98766.00
2022-10-03T02:40:30.757Z,98770.03
2022-10-03T02:42:57.387Z,98762.41
2022-10-03T02:45:32.573Z,98765.34
2022-10-03T02:48:31.343Z,98759.84
2022-10-03T02:51:14.361Z,98765.69
2022-10-03T02:53:43.472Z,98767.28
2022-10-03T02:56:09.742Z,98766.09
2022-10-03T02:58:56.880Z,98773.72
2022-10-03T03:01:55.623Z,98779.88
2022-10-03T03:04:41.552Z,98775.22
2022-10-03T03:07:29.908Z,98772.25
2022-10-03T03:10:14.543Z,98775.88
2022-10-03T03:12:58.961Z,98772.56
2022-10-03T03:15:35.040Z,98783.06
2022-10-03T03:18:24.668Z,98778.72
2022-10-03T03:21:00.506Z,98782.34
2022-10-03T03:23:55.945Z,98788.47
2022-10-03T03:26:31.566Z,98791.44
2022-10-03T03:29:10.275Z,98783.81
2022-10-03T03:31:44.371Z,98788.03
2022-10-03T03:34:10.879Z,98791.34
2022-10-03T03:36:44.048Z,98793.13
2022-10-03T03:39:17.866Z,98791.34
2022-10-03T03:41:51.021Z,98794.31
2022-10-03T03:44:27.227Z,98796.00
2022-10-03T03:47:14.569Z,98792.28
2022-10-03T03:49:59.687Z,98795.25
2022-10-03T03:52:32.215Z,98795.56
2022-10-03T03:55:15.201Z,98786.06
2022-10-03T03:57:53.380Z,98798.03
2022-10-03T04:00:23.722Z,98788.91
2022-10-03T04:03:09.053Z,98794.00
2022-10-03T04:05:44.328Z,98778.00
2022-10-03T04:08:17.633Z,98794.31
2022-10-03T04:11:02.920Z,98804.47
2022-10-03T04:13:36.879Z,98808.81
2022-10-03T04:16:10.915Z,98807.00
2022-10-03T04:19:00.035Z,98812.44
2022-10-03T04:21:39.010Z,98812.09
2022-10-03T04:24:24.104Z,98805.97
2022-10-03T04:26:51.890Z,98809.25
2022-10-03T04:29:21.180Z,98796.09
2022-10-03T04:31:59.914Z,98805.84
2022-10-03T04:34:50.551Z,98806.91
2022-10-03T04:37:39.908Z,98818.22
2022-10-03T04:40:25.662Z,98808.72
2022-10-03T04:42:58.375Z,98824.72
2022-10-03T04:45:44.527Z,98822.16
2022-10-03T04:48:23.276Z,98823.66
2022-10-03T04:50:50.236Z,98823.66
2022-10-03T04:53:21.208Z,98819.31
2022-10-03T04:55:47.462Z,98820.47
2022-10-03T04:58:50.858Z,98815.47
2022-10-03T05:01:38.921Z,98819.41
2022-10-03T05:04:23.919Z,98817.94
2022-10-03T05:06:59.484Z,98820.78
2022-10-03T05:09:44.526Z,98823.66
2022-10-03T05:12:29.858Z,98817.41
2022-10-03T05:15:14.538Z,98825.34
2022-10-03T05:17:46.901Z,98822.38
2022-10-03T05:20:32.033Z,98832.88
2022-10-03T05:23:02.626Z,98823.44
2022-10-03T05:26:23.071Z,98824.59
2022-10-03T05:29:04.016Z,98838.38
2022-10-03T05:31:45.001Z,98845.69
2022-10-03T05:34:23.703Z,98845.69
2022-10-03T05:36:53.088Z,98846.84
2022-10-03T05:39:25.491Z,98848.66
2022-10-03T05:42:18.217Z,98851.63
2022-10-03T05:44:45.405Z,98853.13
2022-10-03T05:47:48.900Z,98857.13
2022-10-03T05:50:44.416Z,98855.31
2022-10-03T05:53:13.598Z,98851.72
2022-10-03T05:55:42.938Z,98861.91
2022-10-03T05:58:15.348Z,98862.00
2022-10-03T06:00:47.797Z,98871.13
2022-10-03T06:03:23.642Z,98869.84
2022-10-03T06:05:53.707Z,98879.25
2022-10-03T06:08:39.715Z,98878.94
2022-10-03T06:11:24.906Z,98874.50
2022-10-03T06:14:10.100Z,98882.53
2022-10-03T06:16:55.151Z,98873.13
2022-10-03T06:19:31.637Z,98888.06
2022-10-03T06:21:57.895Z,98878.94
2022-10-03T06:24:42.956Z,98885.41
2022-10-03T06:27:15.420Z,98893.69
2022-10-03T06:29:52.084Z,98901.72
2022-10-03T06:32:32.484Z,98899.59
2022-10-03T06:35:04.915Z,98896.34
2022-10-03T06:37:50.088Z,98901.41
2022-10-03T06:40:35.118Z,98901.53
2022-10-03T06:43:37.318Z,98904.16
2022-10-03T06:46:10.332Z,98911.59
2022-10-03T06:49:02.730Z,98921.13
2022-10-03T06:51:47.732Z,98906.72
2022-10-03T06:54:14.030Z,98910.97
2022-10-03T06:57:12.741Z,98918.38
2022-10-03T06:59:49.087Z,98913.28
2022-10-03T07:02:21.341Z,98924.53
2022-10-03T07:05:06.415Z,98921.97
2022-10-03T07:07:35.844Z,98928.56
2022-10-03T07:10:05.237Z,98916.28
2022-10-03T07:12:38.845Z,98919.88
2022-10-03T07:15:38.145Z,98924.53
2022-10-03T07:18:15.441Z,98930.78
2022-10-03T07:20:54.044Z,98929.31
2022-10-03T07:23:29.976Z,98934.38
2022-10-03T07:26:15.447Z,98939.28
2022-10-03T07:28:44.724Z,98936.28
2022-10-03T07:31:29.997Z,98928.44
2022-10-03T07:33:56.328Z,98935.25
2022-10-03T07:36:49.727Z,98933.22
2022-10-03T07:39:30.528Z,98940.53
2022-10-03T07:41:56.800Z,98943.06
2022-10-03T07:44:28.519Z,98943.50
2022-10-03T07:47:13.552Z,98946.91
2022-10-03T07:49:54.743Z,98946.47
2022-10-03T07:52:23.853Z,98952.41
2022-10-03T07:55:02.460Z,98956.63
2022-10-03T07:57:31.885Z,98955.69
2022-10-03T08:00:17.052Z,98950.09
2022-10-03T08:03:11.103Z,98959.19
2022-10-03T08:05:37.541Z,98947.16
2022-10-03T08:08:09.342Z,98966.88
2022-10-03T08:10:44.744Z,98958.63
2022-10-03T08:13:11.087Z,98977.94
2022-10-03T08:15:37.416Z,98966.38
2022-10-03T08:18:19.190Z,98968.31
2022-10-03T08:20:48.546Z,98974.13
2022-10-03T08:23:24.264Z,98973.81
2022-10-03T08:25:53.692Z,98963.94
2022-10-03T08:28:38.628Z,98965.00
2022-10-03T08:31:14.623Z,98973.72
2022-10-03T08:33:48.827Z,98974.13
2022-10-03T08:36:33.879Z,98967.25
2022-10-03T08:39:19.295Z,98970.50
2022-10-03T08:41:48.389Z,98959.38
2022-10-03T08:44:44.993Z,98962.28
2022-10-03T08:47:11.298Z,98968.53
2022-10-03T08:49:41.355Z,98972.03
2022-10-03T08:52:23.887Z,98973.09
2022-10-03T08:54:56.504Z,98979.31
2022-10-03T08:57:43.820Z,98977.66
2022-10-03T09:00:20.967Z,98977.00
2022-10-03T09:03:06.507Z,98984.56
2022-10-03T09:05:54.681Z,98979.22
2022-10-03T09:08:24.039Z,98986.25
2022-10-03T09:11:09.235Z,98984.97
2022-10-03T09:13:41.629Z,98984.56
2022-10-03T09:16:14.849Z,98980.41
2022-10-03T09:18:52.880Z,98991.00
2022-10-03T09:21:26.118Z,98992.19
2022-10-03T09:23:52.404Z,98983.47
2022-10-03T09:26:37.403Z,98991.50
2022-10-03T09:29:19.236Z,98993.72
2022-10-03T09:31:58.422Z,98995.84
2022-10-03T09:34:36.713Z,98998.75
2022-10-03T09:37:14.485Z,98995.75
2022-10-03T09:39:48.324Z,98986.63
2022-10-03T09:42:22.025Z,98995.16
2022-10-03T09:45:01.357Z,99002.53
2022-10-03T09:47:36.420Z,99001.78
2022-10-03T09:50:21.433Z,99000.72
2022-10-03T09:52:50.946Z,99005.69
2022-10-03T09:55:43.620Z,98999.66
2022-10-03T09:58:12.713Z,98995.91
2022-10-03T10:00:58.231Z,98993.41
2022-10-03T10:03:48.952Z,98999.25
2022-10-03T10:06:25.843Z,98992.13
2022-10-03T10:09:01.274Z,98988.25
2022-10-03T10:11:34.911Z,98994.41
2022-10-03T10:14:23.308Z,98986.13
2022-10-03T10:17:08.186Z,98983.72
2022-10-03T10:19:55.039Z,98971.47
2022-10-03T10:22:30.157Z,98985.03
2022-10-03T10:25:12.964Z,98983.69
2022-10-03T10:27:58.048Z,98988.75
2022-10-03T10:30:43.083Z,98992.78
2022-10-03T10:33:28.332Z,98988.97
2022-10-03T10:35:54.780Z,98975.84
2022-10-03T10:38:29.416Z,98977.47
2022-10-03T10:41:14.478Z,98988.41
2022-10-03T10:43:57.345Z,98987.06
2022-10-03T10:46:42.698Z,98976.88
2022-10-03T10:49:27.656Z,98971.78
2022-10-03T10:52:08.269Z,98965.06
2022-10-03T10:54:49.738Z,98971.41
2022-10-03T10:57:24.612Z,98985.44
2022-10-03T11:00:15.070Z,98978.97
2022-10-03T11:02:56.795Z,98986.69
2022-10-03T11:05:39.610Z,98991.88
2022-10-03T11:08:24.375Z,98984.16
2022-10-03T11:11:03.097Z,98983.56
2022-10-03T11:13:41.786Z,98981.97
2022-10-03T11:16:21.361Z,98984.97
2022-10-03T11:19:06.503Z,98979.13
2022-10-03T11:21:51.513Z,98991.28
2022-10-03T11:24:30.047Z,98980.44
2022-10-03T11:27:15.212Z,98975.41
2022-10-03T11:30:00.962Z,98987.59
2022-10-03T11:32:27.223Z,98975.06
2022-10-03T11:35:06.499Z,98973.25
2022-10-03T11:37:33.011Z,98987.38
2022-10-03T11:40:14.592Z,98979.13
2022-10-03T11:42:50.498Z,98988.59
2022-10-03T11:45:26.022Z,98991.72
2022-10-03T11:47:56.465Z,98988.66
2022-10-03T11:50:35.337Z,98992.78
2022-10-03T11:53:20.609Z,98991.78
2022-10-03T11:55:46.888Z,98996.78
2022-10-03T11:58:19.173Z,98996.50
2022-10-03T12:00:47.514Z,98989.69
2022-10-03T12:03:13.927Z,98994.22
2022-10-03T12:05:40.321Z,98986.75
2022-10-03T12:08:45.382Z,99004.06
2022-10-03T12:11:35.227Z,99001.50
2022-10-03T12:14:20.446Z,98995.19
2022-10-03T12:17:03.056Z,98994.22
2022-10-03T12:19:35.511Z,98999.53
2022-10-03T12:22:25.885Z,98999.34
2022-10-03T12:24:55.082Z,99001.16
2022-10-03T12:27:30.132Z,99000.41
2022-10-03T12:29:58.865Z,99012.56
2022-10-03T12:32:37.135Z,99004.97
2022-10-03T12:35:08.141Z,99008.53
2022-10-03T12:37:34.410Z,99012.69
2022-10-03T12:40:10.491Z,99004.50
2022-10-03T12:42:47.292Z,99013.72
2022-10-03T12:45:32.466Z,99016.84
2022-10-03T12:48:04.814Z,99011.22
2022-10-03T12:50:31.184Z,99006.47
2022-10-03T12:53:00.578Z,99007.97
2022-10-03T12:55:29.799Z,99006.16
2022-10-03T12:58:06.905Z,99007.66
2022-10-03T13:00:36.294Z,99003.94
2022-10-03T13:03:05.589Z,99006.09
2022-10-03T13:05:32.225Z,99013.09
2022-10-03T13:08:17.377Z,98999.19
2022-10-03T13:10:48.052Z,99000.59
2022-10-03T13:13:26.360Z,99002.72
2022-10-03T13:15:55.737Z,98999.94
2022-10-03T13:18:25.143Z,98998.91
2022-10-03T13:20:57.429Z,98987.31
2022-10-03T13:23:29.698Z,98990.50
2022-10-03T13:26:07.522Z,98984.66
2022-10-03T13:28:45.016Z,98986.94
2022-10-03T13:31:15.896Z,98982.56
2022-10-03T13:33:45.431Z,98983.59
2022-10-03T13:36:17.784Z,98981.34
2022-10-03T13:38:49.495Z,98977.41
2022-10-03T13:41:24.087Z,98987.03
2022-10-03T13:43:51.970Z,98978.41
2022-10-03T13:46:25.932Z,98979.13
2022-10-03T13:49:01.064Z,98983.56
2022-10-03T13:51:40.793Z,98974.81
2022-10-03T13:54:09.758Z,98979.91
2022-10-03T13:56:44.045Z,98982.91
2022-10-03T13:59:10.335Z,98985.78
2022-10-03T14:01:40.405Z,98980.53
2022-10-03T14:04:09.845Z,98986.56
2022-10-03T14:06:56.380Z,98990.84
2022-10-03T14:09:32.608Z,99004.28
2022-10-03T14:12:05.144Z,99005.03
2022-10-03T14:14:41.919Z,99004.34
2022-10-03T14:17:08.922Z,99007.44
2022-10-03T14:19:39.825Z,99008.50
2022-10-03T14:22:22.638Z,99006.63
2022-10-03T14:24:57.732Z,99014.59
2022-10-03T14:27:41.507Z,99003.78
2022-10-03T14:30:18.475Z,99009.09
2022-10-03T14:32:48.849Z,99007.06
2022-10-03T14:35:19.237Z,99004.84
2022-10-03T14:37:53.480Z,99011.41
2022-10-03T14:40:35.687Z,99004.19
2022-10-03T14:43:09.354Z,99011.06
2022-10-03T14:45:41.430Z,99010.78
2022-10-03T14:48:12.479Z,99013.59
2022-10-03T14:50:39.673Z,99010.34
2022-10-03T14:53:08.773Z,99008.84
2022-10-03T14:55:46.274Z,99011.03
2022-10-03T14:58:23.330Z,99003.38
2022-10-03T15:00:52.967Z,99005.84
2022-10-03T15:03:22.394Z,99015.41
2022-10-03T15:05:58.629Z,99007.97
2022-10-03T15:08:29.237Z,99006.84
2022-10-03T15:10:55.802Z,99008.34
2022-10-03T15:13:23.668Z,99002.50
2022-10-03T15:15:50.939Z,99001.75
2022-10-03T15:18:21.534Z,99004.63
2022-10-03T15:20:49.087Z,99000.16
2022-10-03T15:23:24.624Z,99010.06
2022-10-03T15:25:53.928Z,99005.78
2022-10-03T15:28:27.892Z,99002.84
2022-10-03T15:30:55.635Z,98997.31
2022-10-03T15:33:30.224Z,98996.56
2022-10-03T15:36:00.378Z,99003.81
2022-10-03T15:38:32.658Z,98998.78
2022-10-03T15:41:11.249Z,98996.63
2022-10-03T15:43:50.611Z,98995.25
2022-10-03T15:46:39.255Z,98993.44
2022-10-03T15:49:24.202Z,98998.88
2022-10-03T15:51:50.882Z,98995.25
2022-10-03T15:54:21.865Z,98988.72
2022-10-03T15:56:51.529Z,98989.41
2022-10-03T15:59:33.543Z,98981.66
2022-10-03T16:02:03.328Z,98982.75
2022-10-03T16:04:33.520Z,98982.06
2022-10-03T16:06:59.798Z,98992.28
2022-10-03T16:09:32.424Z,98991.88
2022-10-03T16:12:01.877Z,98998.78
2022-10-03T16:14:45.912Z,98990.38
2022-10-03T16:17:29.032Z,98991.81
2022-10-03T16:19:58.476Z,98982.66
2022-10-03T16:22:24.839Z,98985.28
2022-10-03T16:24:51.404Z,98984.16
2022-10-03T16:27:19.607Z,98984.16
2022-10-03T16:29:55.031Z,98984.47
2022-10-03T16:32:29.886Z,98985.13
2022-10-03T16:34:59.459Z,98984.75
2022-10-03T16:37:27.210Z,98985.06
2022-10-03T16:39:57.360Z,98988.03
2022-10-03T16:42:25.815Z,98989.31
2022-10-03T16:44:55.348Z,98983.50
2022-10-03T16:47:37.594Z,98987.50
2022-10-03T16:50:22.976Z,98984.59
2022-10-03T16:52:53.063Z,98980.88
2022-10-03T16:55:30.073Z,98989.16
2022-10-03T16:57:57.670Z,98992.88
2022-10-03T17:00:33.007Z,98991.72
2022-10-03T17:02:59.470Z,98996.50
2022-10-03T17:05:26.314Z,99000.84
2022-10-03T17:07:55.094Z,99005.56
2022-10-03T17:10:32.160Z,99011.06
2022-10-03T17:13:03.690Z,99013.28
2022-10-03T17:15:33.845Z,99018.31
2022-10-03T17:18:06.188Z,99016.31
2022-10-03T17:20:48.244Z,99014.47
2022-10-03T17:23:20.615Z,99014.59
2022-10-03T17:25:58.660Z,99017.06
2022-10-03T17:28:33.231Z,99014.41
2022-10-03T17:31:01.797Z,99016.91
2022-10-03T17:33:28.135Z,99015.72
2022-10-03T17:36:03.168Z,99017.09
2022-10-03T17:38:49.558Z,99021.91
2022-10-03T17:41:18.510Z,99022.22
2022-10-03T17:44:17.152Z,99010.94
2022-10-03T17:47:02.436Z,99028.19
2022-10-03T17:49:47.315Z,99026.34
2022-10-03T17:52:16.095Z,99022.03
2022-10-03T17:54:44.341Z,99024.16
2022-10-03T17:57:21.871Z,99021.28
2022-10-03T17:59:57.640Z,99015.38
2022-10-03T18:02:29.178Z,99013.91
2022-10-03T18:05:16.736Z,99017.94
2022-10-03T18:07:43.657Z,99007.41
2022-10-03T18:10:19.645Z,99014.38
2022-10-03T18:12:48.155Z,99011.03
2022-10-03T18:15:40.823Z,99004.84
2022-10-03T18:18:16.833Z,99013.00
2022-10-03T18:20:58.744Z,99011.09
2022-10-03T18:23:54.387Z,99011.53
2022-10-03T18:26:21.334Z,99012.69
2022-10-03T18:29:11.622Z,99013.31
2022-10-03T18:31:45.256Z,99015.88
2022-10-03T18:34:20.070Z,99012.25
2022-10-03T18:36:48.213Z,99012.25
2022-10-03T18:39:18.940Z,99014.56
2022-10-03T18:41:47.525Z,99019.66
2022-10-03T18:44:16.820Z,99019.28
2022-10-03T18:46:45.253Z,99021.41
2022-10-03T18:52:10.682Z,99009.09
2022-10-03T18:54:46.933Z,99014.25
2022-10-03T18:57:31.986Z,99017.06
2022-10-03T19:00:09.425Z,99012.59
2022-10-03T19:02:39.105Z,99011.78
2022-10-03T19:05:15.549Z,99009.84
2022-10-03T19:07:55.755Z,99010.19
2022-10-03T19:10:31.639Z,99004.84
2022-10-03T19:13:03.761Z,99002.53
2022-10-03T19:15:33.431Z,98997.03
2022-10-03T19:18:08.878Z,99006.13
2022-10-03T19:20:41.026Z,99007.22
2022-10-03T19:23:15.597Z,99007.13
2022-10-03T19:25:43.569Z,99006.63
2022-10-03T19:28:17.034Z,99001.88
2022-10-03T19:30:43.829Z,99006.97
2022-10-03T19:33:15.826Z,99004.72
2022-10-03T19:35:47.434Z,99006.84
2022-10-03T19:38:18.208Z,99006.22
2022-10-03T19:41:00.180Z,99009.06
2022-10-03T19:43:26.524Z,99012.06
2022-10-03T19:45:57.813Z,99010.56
2022-10-03T19:48:26.371Z,99009.91
2022-10-03T19:50:52.745Z,99013.88
2022-10-03T19:53:19.391Z,99007.38
2022-10-03T19:55:46.386Z,99009.91
2022-10-03T19:58:19.954Z,99013.44
2022-10-03T20:00:50.763Z,99014.50
2022-10-03T20:03:34.366Z,99019.94
2022-10-03T20:06:01.919Z,99010.88
2022-10-03T20:08:46.638Z,99018.53
2022-10-03T20:11:20.966Z,99013.88
2022-10-03T20:13:48.049Z,99013.03
2022-10-03T20:16:15.585Z,99010.22
2022-10-03T20:18:43.899Z,99013.22
2022-10-03T20:21:11.372Z,99016.06
2022-10-03T20:23:40.790Z,99006.84
2022-10-03T20:26:32.566Z,99005.38
2022-10-03T20:28:58.865Z,98998.88
2022-10-03T20:31:27.266Z,99010.66
2022-10-03T20:33:54.460Z,98998.66
2022-10-03T20:36:22.988Z,99006.97
2022-10-03T20:39:09.914Z,99003.66
2022-10-03T20:41:43.437Z,98996.84
2022-10-03T20:44:15.973Z,98998.75
2022-10-03T20:46:50.282Z,99004.91
2022-10-03T20:49:19.357Z,99012.78
2022-10-03T20:51:51.784Z,99008.09
2022-10-03T20:54:19.393Z,99006.53
2022-10-03T20:57:08.707Z,98998.88
2022-10-03T20:59:36.898Z,99007.69
2022-10-03T21:02:06.148Z,99009.59
2022-10-03T21:04:38.130Z,99003.75
2022-10-03T21:07:13.157Z,99005.56
2022-10-03T21:09:42.373Z,99006.63
2022-10-03T21:12:17.533Z,98997.47
2022-10-03T21:14:46.294Z,99001.53
2022-10-03T21:17:14.776Z,99001.44
2022-10-03T21:19:46.891Z,99008.84
2022-10-03T21:22:16.665Z,99003.00
2022-10-03T21:24:51.931Z,99003.66
2022-10-03T21:27:19.725Z,98998.97
2022-10-03T21:30:12.443Z,99002.25
2022-10-03T21:32:55.047Z,99007.75
2022-10-03T21:35:29.331Z,99003.00
2022-10-03T21:38:14.179Z,99005.97
2022-10-03T21:40:59.407Z,99005.34
2022-10-03T21:43:30.493Z,99001.59
2022-10-03T21:46:05.715Z,98992.47
2022-10-03T21:48:50.677Z,99009.59
2022-10-03T21:51:27.982Z,98997.91
2022-10-03T21:54:03.652Z,99012.16
2022-10-03T21:56:29.915Z,99005.88
2022-10-03T21:59:02.270Z,99004.72
2022-10-03T22:01:28.557Z,99004.28
2022-10-03T22:03:58.983Z,98999.63
2022-10-03T22:06:27.488Z,98997.41
2022-10-03T22:08:54.196Z,99001.13
2022-10-03T22:11:20.487Z,99003.91
2022-10-03T22:14:05.561Z,98997.00
2022-10-03T22:16:39.971Z,98999.53
2022-10-03T22:19:20.688Z,99000.69
2022-10-03T22:21:55.338Z,98992.63
2022-10-03T22:24:29.285Z,98997.09
2022-10-03T22:27:14.114Z,98982.09
2022-10-03T22:29:50.425Z,98991.22
2022-10-03T22:32:21.870Z,98990.19
2022-10-03T22:34:57.253Z,98989.75
2022-10-03T22:37:23.802Z,98989.75
2022-10-03T22:39:51.028Z,98981.78
2022-10-03T22:42:18.375Z,98988.03
2022-10-03T22:44:50.318Z,98984.41
2022-10-03T22:47:22.299Z,98992.81
2022-10-03T22:49:51.557Z,98989.13
2022-10-03T22:52:20.812Z,98987.63
2022-10-03T22:54:49.229Z,98984.72
2022-10-03T22:57:15.728Z,98980.38
2022-10-03T22:59:47.741Z,98984.34
2022-10-03T23:02:15.336Z,98986.97
2022-10-03T23:04:47.958Z,98983.59
2022-10-03T23:07:17.017Z,98983.69
2022-10-03T23:09:54.230Z,98982.38
2022-10-03T23:12:21.872Z,98989.69
2022-10-03T23:14:50.276Z,98993.56
2022-10-03T23:17:25.729Z,98986.97
2022-10-03T23:20:10.864Z,98979.31
2022-10-03T23:22:38.084Z,98986.97
2022-10-03T23:25:13.146Z,98987.38
2022-10-03T23:27:59.704Z,98982.63
2022-10-03T23:30:26.014Z,98978.50
2022-10-03T23:32:54.366Z,98980.72
2022-10-03T23:35:41.041Z,98978.81
2022-10-03T23:38:26.114Z,98983.59
2022-10-03T23:40:52.387Z,98981.69
2022-10-03T23:43:25.796Z,98985.72
2022-10-03T23:45:53.390Z,98987.19
2022-10-03T23:48:21.468Z,98979.16
2022-10-03T23:50:58.200Z,98978.81
2022-10-03T23:53:33.433Z,98980.63
2022-10-03T23:56:01.319Z,98985.41
2022-10-03T23:58:32.277Z,98986.06
